Time;durP1;ratioP1;P1;durP2;ratioP2;P2;SDS_P1;SDS_P2;PMS_P1;PMS_P2;Temp;Humidity;BMP_temperature;BMP_pressure;BME280_temperature;BME280_humidity;BME280_pressure;Samples;Min_cycle;Max_cycle;Signal;HPM_P1;HPM_P2
2023/06/27 00:03:51;;;;;;;3.58;1.75;;;23.90;55.00;;;;;;10321788;28;20392;-58
2023/06/27 00:08:52;;;;;;;4.18;1.95;;;24.00;55.10;;;;;;10311690;28;20027;-57
2023/06/27 00:13:52;;;;;;;2.13;1.50;;;23.90;55.10;;;;;;10326576;28;20110;-58
2023/06/27 00:18:53;;;;;;;2.92;1.63;;;23.90;55.10;;;;;;10326396;28;20033;-58
2023/06/27 00:23:55;;;;;;;2.75;1.33;;;23.90;55.20;;;;;;10325813;28;20022;-58
2023/06/27 00:28:56;;;;;;;2.55;1.52;;;23.90;55.30;;;;;;10297760;28;20026;-58
2023/06/27 00:33:57;;;;;;;4.35;1.50;;;23.90;55.30;;;;;;10327341;28;20057;-57
2023/06/27 00:38:58;;;;;;;2.95;1.60;;;23.90;55.40;;;;;;10300395;28;20062;-57
2023/06/27 00:43:58;;;;;;;2.33;1.42;;;23.90;55.30;;;;;;10317738;28;20713;-57
2023/06/27 00:48:59;;;;;;;2.95;1.35;;;23.90;55.50;;;;;;10325383;28;20026;-56
2023/06/27 00:54:00;;;;;;;2.53;1.90;;;23.80;55.50;;;;;;10324807;28;20369;-58
2023/06/27 00:59:02;;;;;;;2.22;1.50;;;23.90;55.70;;;;;;10325265;28;20493;-58
2023/06/27 01:04:04;;;;;;;2.92;1.40;;;23.80;55.60;;;;;;10308756;28;20028;-58
2023/06/27 01:09:41;;;;;;;2.60;1.83;;;23.80;55.70;;;;;;10324992;28;20601;-58
2023/06/27 01:14:45;;;;;;;2.35;1.30;;;23.80;55.90;;;;;;10312273;28;20031;-59
2023/06/27 01:19:47;;;;;;;2.25;1.50;;;23.80;56.10;;;;;;10308399;28;20026;-58
2023/06/27 01:24:47;;;;;;;2.88;1.50;;;23.80;56.10;;;;;;10308147;28;20014;-59
2023/06/27 01:29:48;;;;;;;2.80;1.10;;;23.80;56.20;;;;;;10323902;28;20790;-57
2023/06/27 01:35:03;;;;;;;2.80;1.55;;;23.80;56.30;;;;;;10325028;28;20030;-57
2023/06/27 01:40:14;;;;;;;2.75;1.63;;;23.80;56.30;;;;;;10322473;28;20030;-59
2023/06/27 01:45:17;;;;;;;1.88;1.35;;;23.80;56.40;;;;;;10323274;28;20077;-58
2023/06/27 01:50:18;;;;;;;2.72;1.55;;;23.80;56.40;;;;;;10323213;28;20477;-58
2023/06/27 01:55:18;;;;;;;2.28;1.60;;;23.80;56.50;;;;;;10306808;28;20023;-59
2023/06/27 02:00:21;;;;;;;2.97;1.33;;;23.80;56.50;;;;;;10323373;28;20385;-59
2023/06/27 02:05:21;;;;;;;2.67;1.58;;;23.70;56.50;;;;;;10321769;28;20077;-58
2023/06/27 02:10:23;;;;;;;2.05;1.42;;;23.80;56.60;;;;;;10322644;28;20015;-58
2023/06/27 02:15:23;;;;;;;2.97;1.67;;;23.80;56.70;;;;;;10322459;28;20068;-58
2023/06/27 02:20:24;;;;;;;2.90;1.55;;;23.70;56.60;;;;;;10323046;28;20018;-59
2023/06/27 02:25:25;;;;;;;2.63;1.40;;;23.70;56.60;;;;;;10323940;28;20034;-57
2023/06/27 02:30:25;;;;;;;3.25;1.75;;;23.70;56.70;;;;;;10306107;28;20097;-57
2023/06/27 02:35:26;;;;;;;2.78;1.45;;;23.70;56.70;;;;;;10324135;28;20133;-58
2023/06/27 02:40:28;;;;;;;2.90;1.70;;;23.70;56.80;;;;;;10312223;28;20037;-57
2023/06/27 02:45:28;;;;;;;4.03;1.70;;;23.70;56.80;;;;;;10312782;28;20071;-58
2023/06/27 02:50:29;;;;;;;2.08;1.50;;;23.70;56.80;;;;;;10298367;28;20436;-58
2023/06/27 02:55:30;;;;;;;2.58;1.80;;;23.60;56.90;;;;;;10323369;28;20075;-57
2023/06/27 03:00:31;;;;;;;4.22;1.70;;;23.70;56.90;;;;;;10321799;28;20109;-58
2023/06/27 03:05:31;;;;;;;2.83;1.95;;;23.60;56.90;;;;;;10304714;28;20042;-58
2023/06/27 03:10:32;;;;;;;2.60;2.28;;;23.60;56.90;;;;;;10318927;28;20454;-57
2023/06/27 03:15:33;;;;;;;2.85;1.92;;;23.60;56.90;;;;;;10323260;28;20466;-59
2023/06/27 03:20:34;;;;;;;3.08;1.83;;;23.60;57.00;;;;;;10329470;28;20109;-59
2023/06/27 03:25:34;;;;;;;2.72;1.80;;;23.60;56.90;;;;;;10330459;28;20034;-57
2023/06/27 03:30:35;;;;;;;2.75;1.83;;;23.60;56.90;;;;;;10314974;28;20021;-57
2023/06/27 03:35:36;;;;;;;4.28;1.73;;;23.60;56.90;;;;;;10317636;28;20062;-57
2023/06/27 03:40:36;;;;;;;4.40;1.60;;;23.60;57.50;;;;;;10328037;28;20022;-57
2023/06/27 03:45:38;;;;;;;3.90;1.77;;;23.70;56.70;;;;;;10327985;28;20121;-57
2023/06/27 03:50:39;;;;;;;5.88;2.00;;;23.70;56.50;;;;;;10326672;28;20015;-57
2023/06/27 03:55:40;;;;;;;4.43;1.88;;;23.70;57.60;;;;;;10322139;28;20076;-56
2023/06/27 04:00:42;;;;;;;1.98;1.42;;;23.70;56.60;;;;;;10328889;28;20444;-57
2023/06/27 04:05:43;;;;;;;4.82;1.80;;;23.70;57.50;;;;;;10320452;28;20486;-57
2023/06/27 04:10:44;;;;;;;4.05;2.00;;;23.60;57.20;;;;;;10322965;28;20019;-57
2023/06/27 04:15:44;;;;;;;3.28;2.00;;;23.60;57.20;;;;;;10326097;28;20247;-58
2023/06/27 04:20:45;;;;;;;3.33;1.92;;;23.60;57.90;;;;;;10325741;28;20428;-58
2023/06/27 04:26:03;;;;;;;4.28;2.47;;;23.60;57.40;;;;;;10324253;28;20505;-58
2023/06/27 04:31:03;;;;;;;3.05;1.55;;;23.60;57.50;;;;;;10316633;28;20030;-57
2023/06/27 04:36:05;;;;;;;4.63;2.20;;;23.60;57.60;;;;;;10299865;28;20744;-56
2023/06/27 04:41:10;;;;;;;3.63;1.90;;;23.60;57.60;;;;;;10324621;28;20034;-57
2023/06/27 04:46:10;;;;;;;4.40;2.40;;;23.60;57.60;;;;;;10322533;28;20088;-57
2023/06/27 04:51:11;;;;;;;3.03;1.80;;;23.60;57.60;;;;;;10324997;28;20085;-57
2023/06/27 04:56:11;;;;;;;3.75;1.90;;;23.50;57.70;;;;;;10322192;28;20148;-57
2023/06/27 05:01:12;;;;;;;3.50;2.53;;;23.50;57.80;;;;;;10310385;28;20605;-57
2023/06/27 05:06:13;;;;;;;6.15;2.35;;;23.50;58.00;;;;;;10311499;28;20117;-57
2023/06/27 05:11:13;;;;;;;5.93;2.40;;;23.60;58.70;;;;;;10324504;28;20534;-57
2023/06/27 05:16:14;;;;;;;5.15;2.08;;;23.60;58.30;;;;;;10322737;28;20032;-57
2023/06/27 05:21:15;;;;;;;6.30;2.47;;;23.60;57.70;;;;;;10324202;28;20097;-60
2023/06/27 05:26:15;;;;;;;8.02;2.72;;;23.60;58.00;;;;;;10324314;28;20038;-57
2023/06/27 05:31:16;;;;;;;7.75;3.50;;;23.60;59.00;;;;;;10324673;28;20049;-57
2023/06/27 05:36:17;;;;;;;14.70;2.90;;;23.70;58.30;;;;;;10325622;28;20077;-58
2023/06/27 05:41:18;;;;;;;8.13;2.45;;;23.70;58.40;;;;;;10320357;28;20133;-58
2023/06/27 05:46:18;;;;;;;8.45;3.00;;;23.70;58.90;;;;;;10321466;28;20101;-57
2023/06/27 05:51:20;;;;;;;7.95;2.67;;;23.70;59.10;;;;;;10324966;28;20722;-58
2023/06/27 05:56:20;;;;;;;13.00;2.72;;;23.70;59.10;;;;;;10323202;28;20370;-58
2023/06/27 06:01:21;;;;;;;14.07;3.00;;;23.70;59.00;;;;;;10324268;28;20050;-58
2023/06/27 06:06:22;;;;;;;15.00;4.28;;;23.70;59.20;;;;;;10324273;28;20454;-58
2023/06/27 06:11:23;;;;;;;16.73;4.18;;;23.60;59.30;;;;;;10323364;28;20085;-59
2023/06/27 06:16:24;;;;;;;15.43;3.08;;;23.60;59.50;;;;;;10323314;28;20552;-58
2023/06/27 06:21:25;;;;;;;13.85;3.08;;;23.60;59.00;;;;;;10315867;28;20033;-58
2023/06/27 06:26:25;;;;;;;12.43;3.05;;;23.60;59.20;;;;;;10323035;28;20022;-58
2023/06/27 06:31:26;;;;;;;11.07;2.85;;;23.60;59.30;;;;;;10323119;28;20026;-59
2023/06/27 06:36:27;;;;;;;10.30;3.00;;;23.60;59.40;;;;;;10323804;28;20126;-58
2023/06/27 06:41:28;;;;;;;9.48;3.15;;;23.60;59.40;;;;;;10322273;28;20023;-59
2023/06/27 06:46:28;;;;;;;9.30;3.40;;;23.60;59.40;;;;;;10321136;28;20065;-58
2023/06/27 06:51:29;;;;;;;9.38;3.13;;;23.60;59.30;;;;;;10323791;28;20069;-59
2023/06/27 06:56:30;;;;;;;6.95;2.88;;;23.60;59.10;;;;;;10331152;28;20019;-59
2023/06/27 07:01:30;;;;;;;6.88;2.65;;;23.70;59.10;;;;;;10302342;28;20085;-59
2023/06/27 07:06:31;;;;;;;7.63;3.03;;;23.70;58.70;;;;;;10329718;28;20366;-57
2023/06/27 07:11:31;;;;;;;6.13;2.63;;;23.70;58.70;;;;;;10330726;28;20050;-60
2023/06/27 07:16:32;;;;;;;4.97;2.58;;;23.70;58.50;;;;;;10330277;28;20102;-58
2023/06/27 07:21:34;;;;;;;5.68;2.28;;;23.80;58.60;;;;;;10286629;28;20125;-59
2023/06/27 07:26:35;;;;;;;9.32;2.92;;;23.80;58.60;;;;;;10326829;28;20022;-58
2023/06/27 07:31:36;;;;;;;5.40;2.08;;;23.80;58.30;;;;;;10329985;28;20046;-58
2023/06/27 07:36:36;;;;;;;6.70;2.75;;;23.80;58.10;;;;;;10325641;28;20073;-59
2023/06/27 07:41:37;;;;;;;5.57;2.85;;;23.90;58.00;;;;;;10326485;28;20110;-59
2023/06/27 07:46:38;;;;;;;6.03;2.88;;;23.80;58.00;;;;;;10329112;28;20034;-59
2023/06/27 07:51:38;;;;;;;4.75;2.22;;;23.90;58.30;;;;;;10327871;28;20136;-57
2023/06/27 07:56:39;;;;;;;6.60;2.45;;;23.90;59.20;;;;;;10317165;28;20125;-58
2023/06/27 08:01:40;;;;;;;7.47;2.72;;;23.90;58.10;;;;;;10328817;28;20041;-57
2023/06/27 08:06:42;;;;;;;4.60;2.40;;;23.90;58.00;;;;;;10327374;28;20066;-59
2023/06/27 08:11:43;;;;;;;5.78;2.65;;;23.90;57.70;;;;;;10319859;28;20023;-58
2023/06/27 08:16:43;;;;;;;5.47;2.38;;;23.90;58.00;;;;;;10327923;28;20022;-58
2023/06/27 08:21:44;;;;;;;4.82;2.35;;;23.90;57.60;;;;;;10313323;28;20081;-58
2023/06/27 08:26:49;;;;;;;4.70;2.08;;;23.90;57.50;;;;;;10322867;28;20033;-58
2023/06/27 08:31:51;;;;;;;6.53;2.03;;;24.00;57.30;;;;;;10325473;28;20022;-60
2023/06/27 08:36:52;;;;;;;4.47;1.90;;;23.90;57.40;;;;;;10325379;28;20394;-58
2023/06/27 08:41:53;;;;;;;6.80;2.15;;;23.90;57.10;;;;;;10327278;28;20117;-58
2023/06/27 08:46:58;;;;;;;14.73;2.63;;;23.80;56.90;;;;;;10315242;28;20034;-59
2023/06/27 08:52:02;;;;;;;7.22;2.30;;;23.80;56.10;;;;;;10321836;28;20049;-58
2023/06/27 08:57:05;;;;;;;5.35;2.58;;;23.80;56.70;;;;;;10316152;28;20058;-58
2023/06/27 09:02:09;;;;;;;5.00;1.55;;;23.80;56.90;;;;;;10301402;28;20061;-59
2023/06/27 09:07:11;;;;;;;4.97;1.98;;;23.80;56.80;;;;;;10318876;28;20027;-57
2023/06/27 09:12:13;;;;;;;3.70;1.90;;;23.80;56.70;;;;;;10320279;28;20072;-58
2023/06/27 09:17:14;;;;;;;5.10;2.33;;;23.80;56.60;;;;;;10321218;28;20018;-59
2023/06/27 09:22:17;;;;;;;2.20;1.38;;;23.80;56.40;;;;;;10323681;28;20027;-57
2023/06/27 09:27:31;;;;;;;6.55;1.90;;;23.80;56.40;;;;;;10294816;28;20572;-59
2023/06/27 09:32:32;;;;;;;3.78;1.83;;;23.80;56.20;;;;;;10313748;28;20485;-59
2023/06/27 09:37:33;;;;;;;3.78;1.40;;;23.90;56.10;;;;;;10314772;28;20406;-59
2023/06/27 09:42:46;;;;;;;3.45;1.67;;;23.90;55.80;;;;;;10321729;28;20014;-60
2023/06/27 09:47:51;;;;;;;2.80;1.70;;;23.90;55.80;;;;;;10306977;28;20038;-60
2023/06/27 09:52:53;;;;;;;2.08;1.33;;;23.90;55.60;;;;;;10321957;28;20023;-57
2023/06/27 09:57:54;;;;;;;2.15;1.50;;;23.90;54.90;;;;;;10322688;28;20030;-58
2023/06/27 10:02:55;;;;;;;3.63;1.90;;;23.90;55.10;;;;;;10322538;28;20019;-57
2023/06/27 10:07:56;;;;;;;6.47;1.60;;;23.90;54.70;;;;;;10320944;28;20030;-59
2023/06/27 10:12:57;;;;;;;3.55;1.38;;;23.90;54.40;;;;;;10322440;28;20122;-58
2023/06/27 10:17:58;;;;;;;3.58;1.20;;;23.90;54.40;;;;;;10319489;28;20027;-56
2023/06/27 10:23:00;;;;;;;3.75;1.20;;;23.80;54.10;;;;;;10320424;28;20371;-57
2023/06/27 10:28:08;;;;;;;5.75;1.63;;;23.90;54.30;;;;;;10321419;28;20042;-58
2023/06/27 10:33:20;;;;;;;2.17;1.10;;;23.90;54.30;;;;;;10327716;28;20034;-59
2023/06/27 10:38:21;;;;;;;3.10;1.30;;;23.90;54.10;;;;;;10325707;28;20501;-57
2023/06/27 10:43:54;;;;;;;3.47;1.50;;;23.90;54.30;;;;;;10328007;28;20017;-58
2023/06/27 10:49:04;;;;;;;4.65;1.20;;;23.90;54.40;;;;;;10328418;28;20198;-59
2023/06/27 10:54:07;;;;;;;2.00;1.15;;;23.90;55.00;;;;;;10329812;28;20073;-56
2023/06/27 10:59:16;;;;;;;2.08;1.02;;;23.90;54.90;;;;;;10328939;28;20033;-59
2023/06/27 11:04:19;;;;;;;4.97;1.30;;;23.90;54.90;;;;;;10328076;28;20124;-58
2023/06/27 11:09:21;;;;;;;2.90;1.65;;;23.90;54.70;;;;;;10328155;28;20026;-58
2023/06/27 11:14:42;;;;;;;4.40;0.98;;;23.90;55.00;;;;;;10315500;28;20470;-57
2023/06/27 11:19:44;;;;;;;2.70;1.17;;;24.00;54.80;;;;;;10318603;28;20026;-57
2023/06/27 11:24:46;;;;;;;4.32;1.30;;;23.90;55.30;;;;;;10327998;28;20029;-58
2023/06/27 11:29:46;;;;;;;2.08;1.17;;;23.90;55.10;;;;;;10327800;28;20026;-58
2023/06/27 11:34:47;;;;;;;1.77;1.25;;;23.90;55.40;;;;;;10327658;28;20018;-58
2023/06/27 11:39:55;;;;;;;3.20;1.45;;;23.90;55.20;;;;;;10326555;28;20104;-59
2023/06/27 11:44:55;;;;;;;2.63;1.42;;;23.90;55.60;;;;;;10327017;28;20053;-59
2023/06/27 11:50:11;;;;;;;3.35;1.02;;;23.90;55.70;;;;;;10322664;28;20140;-59
2023/06/27 11:55:12;;;;;;;4.13;1.23;;;23.90;55.70;;;;;;10316139;28;20516;-58
2023/06/27 12:00:15;;;;;;;3.83;1.35;;;23.90;54.60;;;;;;10325626;28;20033;-58
2023/06/27 12:05:18;;;;;;;3.88;1.55;;;23.90;54.20;;;;;;10318601;28;20023;-58
2023/06/27 12:10:26;;;;;;;4.80;1.48;;;23.90;54.10;;;;;;10326232;28;20149;-59
2023/06/27 12:15:27;;;;;;;3.40;1.50;;;23.90;53.90;;;;;;10322123;28;20022;-61
2023/06/27 12:20:43;;;;;;;3.20;1.33;;;23.90;53.70;;;;;;10325899;28;20741;-60
2023/06/27 12:25:45;;;;;;;9.27;1.83;;;24.00;53.40;;;;;;10312770;28;20023;-60
2023/06/27 12:30:45;;;;;;;12.90;2.25;;;24.00;53.70;;;;;;10324331;28;20502;-59
2023/06/27 12:35:46;;;;;;;13.95;1.90;;;24.00;53.80;;;;;;10324412;28;20052;-59
2023/06/27 12:40:47;;;;;;;13.40;2.00;;;24.00;54.30;;;;;;10324671;28;20030;-58
2023/06/27 12:46:08;;;;;;;14.70;2.65;;;24.00;54.50;;;;;;10325359;28;20429;-58
2023/06/27 12:51:11;;;;;;;8.38;2.08;;;24.00;55.40;;;;;;10321852;28;20054;-58
2023/06/27 12:56:12;;;;;;;9.70;2.35;;;23.90;54.30;;;;;;10321464;28;20053;-59
2023/06/27 13:01:13;;;;;;;5.90;2.00;;;23.90;54.30;;;;;;10323063;28;20092;-58
2023/06/27 13:06:14;;;;;;;7.28;3.03;;;23.90;54.40;;;;;;10324034;28;20092;-57
2023/06/27 13:11:15;;;;;;;3.72;1.20;;;23.90;54.10;;;;;;10324137;28;20072;-58
2023/06/27 13:16:15;;;;;;;4.10;1.27;;;23.90;54.50;;;;;;10293544;28;20025;-58
2023/06/27 13:21:17;;;;;;;4.43;1.80;;;23.90;54.60;;;;;;10324126;28;20355;-56
2023/06/27 13:26:18;;;;;;;9.90;2.22;;;23.90;54.40;;;;;;10323438;28;20557;-57
2023/06/27 13:31:18;;;;;;;3.05;1.00;;;23.90;54.10;;;;;;10316406;28;20033;-58
2023/06/27 13:36:19;;;;;;;4.20;1.33;;;23.90;54.20;;;;;;10323315;28;20050;-58
2023/06/27 13:41:20;;;;;;;4.68;1.20;;;23.90;54.00;;;;;;10321967;28;20242;-61
2023/06/27 13:46:21;;;;;;;4.95;1.35;;;23.90;54.10;;;;;;10319829;28;20177;-59
2023/06/27 13:51:22;;;;;;;2.13;1.30;;;23.90;54.00;;;;;;10322780;28;20018;-58
2023/06/27 13:56:23;;;;;;;4.43;1.50;;;23.90;54.70;;;;;;10322632;28;20109;-58
2023/06/27 14:01:26;;;;;;;4.93;1.38;;;23.80;53.80;;;;;;10322383;28;20022;-57
2023/06/27 14:06:27;;;;;;;2.33;1.25;;;23.90;53.90;;;;;;10320663;28;20038;-57
2023/06/27 14:11:27;;;;;;;3.08;1.60;;;23.90;53.90;;;;;;10321796;28;20406;-59
2023/06/27 14:16:28;;;;;;;4.50;1.55;;;23.90;53.80;;;;;;10320721;28;20030;-56
2023/06/27 14:21:29;;;;;;;6.78;1.60;;;23.90;55.50;;;;;;10323952;28;20022;-58
2023/06/27 14:26:30;;;;;;;5.25;2.10;;;23.80;52.90;;;;;;10324147;28;20562;-58
2023/06/27 14:31:31;;;;;;;6.40;2.05;;;23.80;52.30;;;;;;10323820;28;20053;-57
2023/06/27 14:36:33;;;;;;;6.22;1.33;;;23.80;51.60;;;;;;10323973;28;20053;-58
2023/06/27 14:41:34;;;;;;;4.63;1.63;;;23.80;53.00;;;;;;10324118;28;20490;-60
2023/06/27 14:46:34;;;;;;;3.88;2.00;;;23.90;53.30;;;;;;10321873;28;20113;-59
2023/06/27 14:51:35;;;;;;;52.20;20.52;;;23.90;51.80;;;;;;10321091;28;20466;-60
2023/06/27 14:56:36;;;;;;;18.23;7.38;;;23.90;54.50;;;;;;10321953;28;20030;-56
2023/06/27 15:01:36;;;;;;;15.63;5.72;;;23.90;54.70;;;;;;10321990;28;20061;-58
2023/06/27 15:06:37;;;;;;;16.27;5.38;;;23.90;53.80;;;;;;10322413;28;20165;-57
2023/06/27 15:11:38;;;;;;;10.23;4.85;;;23.90;54.10;;;;;;10321775;28;20548;-58
2023/06/27 15:16:39;;;;;;;10.52;4.32;;;23.90;54.90;;;;;;10330652;28;20117;-59
2023/06/27 15:21:40;;;;;;;12.07;6.22;;;23.90;55.20;;;;;;10322349;28;20510;-58
2023/06/27 15:26:42;;;;;;;9.07;4.10;;;23.90;55.50;;;;;;10329904;28;20034;-56
2023/06/27 15:31:43;;;;;;;17.17;5.35;;;23.90;54.70;;;;;;10327268;28;20045;-59
2023/06/27 15:36:44;;;;;;;15.57;5.32;;;23.90;54.40;;;;;;10327351;28;20434;-57
2023/06/27 15:41:44;;;;;;;19.13;4.72;;;23.90;55.00;;;;;;10325888;28;20018;-57
2023/06/27 15:46:45;;;;;;;14.20;5.00;;;23.90;55.20;;;;;;10329393;28;20038;-57
2023/06/27 15:51:46;;;;;;;10.52;3.72;;;23.90;54.80;;;;;;10329187;28;20042;-58
2023/06/27 15:56:47;;;;;;;17.48;4.07;;;23.90;55.50;;;;;;10329266;28;20036;-54
2023/06/27 16:01:48;;;;;;;19.40;5.70;;;24.00;55.60;;;;;;10328691;28;20040;-57
2023/06/27 16:06:48;;;;;;;24.90;5.75;;;24.00;57.50;;;;;;10328730;28;20030;-60
2023/06/27 16:11:49;;;;;;;14.50;5.35;;;24.20;57.00;;;;;;10328523;28;20520;-56
2023/06/27 16:16:50;;;;;;;15.40;4.80;;;24.40;57.40;;;;;;10328248;28;20030;-56
2023/06/27 16:21:50;;;;;;;15.00;4.30;;;24.50;57.60;;;;;;10323021;28;20196;-58
2023/06/27 16:26:51;;;;;;;17.45;4.25;;;24.50;57.30;;;;;;10325369;28;20034;-58
2023/06/27 16:31:52;;;;;;;15.35;4.70;;;24.50;57.70;;;;;;10327568;28;20026;-56
2023/06/27 16:36:53;;;;;;;16.50;4.70;;;24.50;57.70;;;;;;10313337;28;20077;-57
2023/06/27 16:41:53;;;;;;;8.68;3.97;;;24.60;57.70;;;;;;10326363;28;20057;-58
2023/06/27 16:46:54;;;;;;;13.40;3.92;;;24.40;57.60;;;;;;10320889;28;20522;-57
2023/06/27 16:51:55;;;;;;;20.63;4.75;;;24.40;57.90;;;;;;10325167;28;20042;-58
2023/06/27 16:56:56;;;;;;;19.15;4.57;;;24.30;58.00;;;;;;10326066;28;20088;-55
2023/06/27 17:01:56;;;;;;;14.98;4.43;;;24.30;58.00;;;;;;10318596;28;20647;-59
2023/06/27 17:06:57;;;;;;;18.23;4.15;;;24.20;58.00;;;;;;10324204;28;20046;-58
2023/06/27 17:11:59;;;;;;;14.90;3.83;;;24.10;58.10;;;;;;10325555;28;20062;-58
2023/06/27 17:16:59;;;;;;;14.70;4.68;;;24.10;58.20;;;;;;10314390;28;20473;-59
2023/06/27 17:22:00;;;;;;;16.42;3.95;;;24.00;58.30;;;;;;10320830;28;20030;-58
2023/06/27 17:27:01;;;;;;;12.70;3.83;;;24.00;58.20;;;;;;10325033;28;20041;-55
2023/06/27 17:32:02;;;;;;;11.63;4.65;;;24.00;57.90;;;;;;10325248;28;20122;-58
2023/06/27 17:37:03;;;;;;;19.42;4.72;;;24.00;57.90;;;;;;10321727;28;20134;-57
2023/06/27 17:42:04;;;;;;;26.67;6.60;;;23.90;56.90;;;;;;10324465;28;20030;-58
2023/06/27 17:47:06;;;;;;;20.15;4.60;;;24.00;57.90;;;;;;10324381;28;20061;-57
2023/06/27 17:52:07;;;;;;;23.90;5.15;;;23.90;57.90;;;;;;10322737;28;20474;-58
2023/06/27 17:57:08;;;;;;;16.42;4.55;;;23.90;57.70;;;;;;10324053;28;20057;-58
2023/06/27 18:02:09;;;;;;;17.05;4.25;;;23.90;57.90;;;;;;10324557;28;20117;-57
2023/06/27 18:07:10;;;;;;;11.80;4.50;;;23.90;57.90;;;;;;10324413;28;20034;-58
2023/06/27 18:12:10;;;;;;;12.77;3.97;;;23.90;57.80;;;;;;10324706;28;20023;-57
2023/06/27 18:17:11;;;;;;;10.45;3.08;;;23.90;57.70;;;;;;10324263;28;20034;-58
2023/06/27 18:22:12;;;;;;;8.57;3.88;;;23.90;57.70;;;;;;10319545;28;20485;-59
2023/06/27 18:27:12;;;;;;;13.88;3.88;;;23.80;57.70;;;;;;10320700;28;20126;-58
2023/06/27 18:32:13;;;;;;;14.00;3.88;;;23.80;57.50;;;;;;10323523;28;20026;-59
2023/06/27 18:37:14;;;;;;;14.35;3.67;;;23.80;57.50;;;;;;10322680;28;20046;-58
2023/06/27 18:42:14;;;;;;;13.02;3.08;;;23.80;57.20;;;;;;10321235;28;20019;-59
2023/06/27 18:47:15;;;;;;;5.35;2.70;;;23.80;57.40;;;;;;10322141;28;20133;-56
2023/06/27 18:52:17;;;;;;;5.72;2.17;;;23.70;57.30;;;;;;10321785;28;20010;-56
2023/06/27 18:57:18;;;;;;;6.63;2.15;;;23.80;57.40;;;;;;10331149;28;20033;-59
2023/06/27 19:02:19;;;;;;;8.10;2.40;;;23.70;57.00;;;;;;10328796;28;20113;-58
2023/06/27 19:07:20;;;;;;;6.47;2.40;;;23.80;56.70;;;;;;10328957;28;20042;-57
2023/06/27 19:12:20;;;;;;;6.65;2.33;;;23.80;56.60;;;;;;10330424;28;20011;-56
2023/06/27 19:17:21;;;;;;;7.28;2.30;;;23.70;56.60;;;;;;10329717;28;20010;-57
2023/06/27 19:22:22;;;;;;;7.72;2.80;;;23.70;56.60;;;;;;10329716;28;20521;-60
2023/06/27 19:27:22;;;;;;;3.80;1.98;;;23.80;56.80;;;;;;10329149;28;20470;-59
2023/06/27 19:32:23;;;;;;;3.78;1.90;;;23.70;56.80;;;;;;10327832;28;20021;-58
2023/06/27 19:37:24;;;;;;;3.83;1.92;;;23.80;56.90;;;;;;10327747;28;20440;-59
2023/06/27 19:42:25;;;;;;;5.47;2.10;;;23.70;57.00;;;;;;10327816;28;20089;-59
2023/06/27 19:47:26;;;;;;;12.80;2.60;;;23.70;57.10;;;;;;10328606;28;20113;-58
2023/06/27 19:52:27;;;;;;;9.68;3.03;;;23.60;57.10;;;;;;10324231;28;20050;-57
2023/06/27 19:57:27;;;;;;;7.40;2.13;;;23.60;57.20;;;;;;10325794;28;20026;-60
2023/06/27 20:02:28;;;;;;;8.77;3.40;;;23.60;57.30;;;;;;10324809;28;20050;-58
2023/06/27 20:07:29;;;;;;;6.97;2.60;;;23.60;57.30;;;;;;10323412;28;20658;-58
2023/06/27 20:12:29;;;;;;;9.63;2.20;;;23.60;57.40;;;;;;10323502;28;20026;-60
2023/06/27 20:17:30;;;;;;;7.40;2.30;;;23.60;57.20;;;;;;10324706;28;20218;-58
2023/06/27 20:22:32;;;;;;;6.85;2.25;;;23.50;57.30;;;;;;10324864;28;20109;-58
2023/06/27 20:27:33;;;;;;;5.72;2.00;;;23.50;57.40;;;;;;10325359;28;20034;-58
2023/06/27 20:32:33;;;;;;;4.55;1.92;;;23.50;57.40;;;;;;10322700;28;20030;-57
2023/06/27 20:37:36;;;;;;;5.68;2.03;;;23.50;57.40;;;;;;10320614;28;20633;-59
2023/06/27 20:42:37;;;;;;;6.75;2.15;;;23.50;57.40;;;;;;10321598;28;20014;-58
2023/06/27 20:47:37;;;;;;;5.40;2.85;;;23.50;57.40;;;;;;10322147;28;20040;-59
2023/06/27 20:52:38;;;;;;;3.50;2.22;;;23.50;57.50;;;;;;10322132;28;20050;-60
2023/06/27 20:57:39;;;;;;;4.60;1.98;;;23.50;57.50;;;;;;10324766;28;20033;-57
2023/06/27 21:02:39;;;;;;;4.00;1.73;;;23.50;57.50;;;;;;10321760;28;20031;-59
2023/06/27 21:07:40;;;;;;;6.07;2.03;;;23.50;57.60;;;;;;10323372;28;20434;-58
2023/06/27 21:12:41;;;;;;;4.85;2.63;;;23.50;57.70;;;;;;10322794;28;20110;-57
2023/06/27 21:17:41;;;;;;;4.80;1.52;;;23.50;57.70;;;;;;10322647;28;20029;-60
2023/06/27 21:22:42;;;;;;;5.35;1.52;;;23.50;57.80;;;;;;10323479;28;20122;-58
2023/06/27 21:27:43;;;;;;;5.57;2.10;;;23.40;57.80;;;;;;10322473;28;20026;-58
2023/06/27 21:32:43;;;;;;;4.18;1.73;;;23.40;57.80;;;;;;10322094;28;20069;-58
2023/06/27 21:37:44;;;;;;;5.45;1.83;;;23.40;57.90;;;;;;10320390;28;20134;-59
2023/06/27 21:42:45;;;;;;;3.42;1.75;;;23.40;58.00;;;;;;10315124;28;20096;-57
2023/06/27 21:47:45;;;;;;;5.15;2.30;;;23.40;58.00;;;;;;10321635;28;20045;-54
2023/06/27 21:52:46;;;;;;;4.90;2.00;;;23.40;58.00;;;;;;10302947;28;20109;-58
2023/06/27 21:57:47;;;;;;;3.08;1.45;;;23.40;58.00;;;;;;10319820;28;20105;-59
2023/06/27 22:02:49;;;;;;;3.30;1.45;;;23.40;58.10;;;;;;10319574;28;20330;-58
2023/06/27 22:07:52;;;;;;;2.10;1.65;;;23.40;58.10;;;;;;10320496;28;20085;-57
2023/06/27 22:12:53;;;;;;;2.17;1.33;;;23.40;58.10;;;;;;10321171;28;20037;-59
2023/06/27 22:17:54;;;;;;;3.92;1.88;;;23.40;58.20;;;;;;10321132;28;20050;-58
2023/06/27 22:22:55;;;;;;;2.70;1.60;;;23.40;58.20;;;;;;10320572;28;20076;-58
2023/06/27 22:27:55;;;;;;;5.30;1.48;;;23.40;58.20;;;;;;10312029;28;20122;-59
2023/06/27 22:32:56;;;;;;;3.33;1.33;;;23.30;58.10;;;;;;10320306;28;20030;-59
2023/06/27 22:37:56;;;;;;;2.47;1.27;;;23.30;58.20;;;;;;10319744;28;20129;-59
2023/06/27 22:42:59;;;;;;;4.15;1.88;;;23.30;58.20;;;;;;10319928;28;20018;-59
2023/06/27 22:48:00;;;;;;;2.28;1.60;;;23.30;58.30;;;;;;10321547;28;20026;-58
2023/06/27 22:53:00;;;;;;;6.68;2.72;;;23.30;58.30;;;;;;10320488;28;20101;-59
2023/06/27 22:58:01;;;;;;;3.00;1.35;;;23.30;58.30;;;;;;10318578;28;20226;-58
2023/06/27 23:03:02;;;;;;;2.85;1.70;;;23.30;58.30;;;;;;10319471;28;20026;-59
2023/06/27 23:08:02;;;;;;;2.10;1.30;;;23.30;58.40;;;;;;10319726;28;20035;-57
2023/06/27 23:13:03;;;;;;;3.67;1.80;;;23.30;58.50;;;;;;10319423;28;20018;-58
2023/06/27 23:18:04;;;;;;;3.22;2.10;;;23.30;58.50;;;;;;10321178;28;20097;-58
2023/06/27 23:23:08;;;;;;;2.20;1.17;;;23.30;58.60;;;;;;10319764;28;20482;-60
2023/06/27 23:28:14;;;;;;;2.42;1.30;;;23.30;58.60;;;;;;10319862;28;20544;-59
2023/06/27 23:33:15;;;;;;;4.15;1.83;;;23.30;58.60;;;;;;10319022;28;20021;-58
2023/06/27 23:38:15;;;;;;;2.88;1.13;;;23.30;58.70;;;;;;10308905;28;20060;-58
2023/06/27 23:43:16;;;;;;;2.88;1.45;;;23.30;58.80;;;;;;10326285;28;20026;-58
2023/06/27 23:48:17;;;;;;;2.70;1.63;;;23.20;58.80;;;;;;10312295;28;20037;-57
2023/06/27 23:53:17;;;;;;;3.60;1.50;;;23.20;58.80;;;;;;10325822;28;20109;-57
2023/06/27 23:58:18;;;;;;;2.83;1.73;;;23.20;58.80;;;;;;10314120;28;20046;-58
